FNSA

Saurimo Airport

Saurimo, Angola
METAR FNSA 220600Z 00000KT CAVOK 18/12 Q1016
Observed Flight Rules
Apr-22 @ 06:00 UTC (52 minutes ago) Visual Flight Rules
Visibility Clouds
10,000+ meters
  • Clear skies
Temperatures Readings
Current 18°C / 64°F
Dewpoint 12°C / 54°F
Humidity 68%
Altimeter 30" Hg
Pressure 1016 hPa
Elevation 1093
METAR FNSA 220600Z 00000KT CAVOK 18/12 Q1016
Observed Flight Rules
Apr-22 @ 06:00 UTC
(52 minutes ago)
VFR
Clouds
  • Clear skies
Temperature Dewpoint
18°C / 64°F 12°C / 54°F
Humidity Altimeter Pressure
68% 30" Hg 1016 hPa